createdAt,value
2022-08-18T00:01:14.512Z,100537.09
2022-08-18T00:03:56.516Z,100535.38
2022-08-18T00:06:30.001Z,100518.97
2022-08-18T00:09:04.980Z,100530.22
2022-08-18T00:11:41.335Z,100538.75
2022-08-18T00:14:22.251Z,100529.97
2022-08-18T00:16:53.377Z,100543.44
2022-08-18T00:19:46.638Z,100536.81
2022-08-18T00:22:16.286Z,100529.94
2022-08-18T00:24:48.327Z,100531.50
2022-08-18T00:27:28.550Z,100528.75
2022-08-18T00:30:07.489Z,100535.44
2022-08-18T00:32:43.063Z,100529.34
2022-08-18T00:35:38.457Z,100528.19
2022-08-18T00:38:09.196Z,100527.41
2022-08-18T00:40:55.238Z,100528.50
2022-08-18T00:43:49.369Z,100519.16
2022-08-18T00:46:28.071Z,100532.09
2022-08-18T00:48:57.608Z,100531.53
2022-08-18T00:51:48.649Z,100535.00
2022-08-18T00:54:24.257Z,100534.78
2022-08-18T00:56:58.176Z,100532.59
2022-08-18T01:00:12.182Z,100530.34
2022-08-18T01:02:57.313Z,100528.69
2022-08-18T01:05:34.171Z,100523.72
2022-08-18T01:08:03.315Z,100522.34
2022-08-18T01:10:33.565Z,100527.56
2022-08-18T01:13:02.063Z,100518.22
2022-08-18T01:15:31.291Z,100516.59
2022-08-18T01:18:22.352Z,100522.59
2022-08-18T01:21:41.510Z,100517.88
2022-08-18T01:24:19.810Z,100523.72
2022-08-18T01:26:50.787Z,100518.81
2022-08-18T01:29:22.587Z,100516.56
2022-08-18T01:31:57.032Z,100519.81
2022-08-18T01:34:27.786Z,100513.81
2022-08-18T01:36:57.715Z,100513.00
2022-08-18T01:41:22.510Z,100506.91
2022-08-18T01:42:22.288Z,100507.69
2022-08-18T01:44:51.484Z,100512.00
2022-08-18T01:47:21.083Z,100517.06
2022-08-18T01:49:48.898Z,100513.50
2022-08-18T01:52:20.580Z,100514.56
2022-08-18T01:54:50.369Z,100510.41
2022-08-18T01:57:22.658Z,100513.22
2022-08-18T01:59:51.097Z,100511.81
2022-08-18T02:02:26.456Z,100525.09
2022-08-18T02:05:01.400Z,100519.94
2022-08-18T02:07:36.042Z,100513.34
2022-08-18T02:10:11.842Z,100519.34
2022-08-18T02:12:41.675Z,100517.69
2022-08-18T02:15:11.550Z,100525.28
2022-08-18T02:17:44.462Z,100519.81
2022-08-18T02:20:17.271Z,100519.84
2022-08-18T02:22:47.175Z,100526.41
2022-08-18T02:25:18.438Z,100513.72
2022-08-18T02:27:46.423Z,100518.72
2022-08-18T02:30:18.022Z,100519.72
2022-08-18T02:32:49.064Z,100524.63
2022-08-18T02:35:17.770Z,100524.06
2022-08-18T02:37:48.703Z,100525.53
2022-08-18T02:40:18.080Z,100533.88
2022-08-18T02:42:46.745Z,100528.94
2022-08-18T02:45:15.491Z,100524.06
2022-08-18T02:47:44.322Z,100526.66
2022-08-18T02:50:16.358Z,100524.22
2022-08-18T02:52:44.922Z,100524.47
2022-08-18T02:55:14.004Z,100530.22
2022-08-18T02:57:44.883Z,100529.91
2022-08-18T03:00:25.529Z,100528.25
2022-08-18T03:02:54.741Z,100534.81
2022-08-18T03:05:23.973Z,100533.22
2022-08-18T03:07:54.896Z,100531.56
2022-08-18T03:10:32.611Z,100530.91
2022-08-18T03:13:03.386Z,100535.84
2022-08-18T03:15:32.761Z,100534.81
2022-08-18T03:18:01.474Z,100542.88
2022-08-18T03:20:31.623Z,100537.72
2022-08-18T03:23:05.571Z,100538.56
2022-08-18T03:25:45.957Z,100538.78
2022-08-18T03:28:15.371Z,100545.38
2022-08-18T03:30:44.279Z,100536.56
2022-08-18T03:33:12.118Z,100536.84
2022-08-18T03:35:41.748Z,100540.09
2022-08-18T03:38:10.385Z,100545.00
2022-08-18T03:40:39.632Z,100558.97
2022-08-18T03:43:23.805Z,100553.38
2022-08-18T03:45:58.272Z,100557.09
2022-08-18T03:48:27.056Z,100554.81
2022-08-18T03:50:54.759Z,100553.09
2022-08-18T03:53:23.658Z,100548.66
2022-08-18T03:55:51.901Z,100555.84
2022-08-18T03:58:38.871Z,100553.66
2022-08-18T04:01:07.161Z,100553.66
2022-08-18T04:03:37.082Z,100552.63
2022-08-18T04:06:10.844Z,100559.41
2022-08-18T04:08:44.571Z,100554.88
2022-08-18T04:11:17.153Z,100569.75
2022-08-18T04:13:46.577Z,100559.63
2022-08-18T04:16:15.230Z,100567.00
2022-08-18T04:18:45.318Z,100562.94
2022-08-18T04:21:14.657Z,100567.00
2022-08-18T04:23:44.149Z,100565.94
2022-08-18T04:26:19.161Z,100571.97
2022-08-18T04:28:49.174Z,100568.66
2022-08-18T04:31:23.726Z,100562.91
2022-08-18T04:33:52.051Z,100569.03
2022-08-18T04:36:20.845Z,100568.78
2022-08-18T04:38:50.490Z,100563.66
2022-08-18T04:41:20.622Z,100560.06
2022-08-18T04:43:52.805Z,100563.34
2022-08-18T04:46:23.999Z,100568.84
2022-08-18T04:48:59.198Z,100568.03
2022-08-18T04:52:39.393Z,100565.00
2022-08-18T04:54:18.893Z,100557.59
2022-08-18T04:56:47.549Z,100562.88
2022-08-18T04:59:15.979Z,100561.78
2022-08-18T05:01:48.056Z,100568.94
2022-08-18T05:04:25.494Z,100562.38
2022-08-18T05:06:54.284Z,100566.72
2022-08-18T05:09:23.483Z,100565.63
2022-08-18T05:11:52.066Z,100567.00
2022-08-18T05:14:22.169Z,100571.13
2022-08-18T05:16:49.948Z,100575.22
2022-08-18T05:19:23.408Z,100571.13
2022-08-18T05:22:00.035Z,100568.94
2022-08-18T05:24:37.008Z,100574.19
2022-08-18T05:27:07.800Z,100579.38
2022-08-18T05:29:41.526Z,100571.16
2022-08-18T05:32:30.469Z,100569.50
2022-08-18T05:35:44.743Z,100569.53
2022-08-18T05:38:36.779Z,100575.03
2022-08-18T05:41:15.346Z,100570.63
2022-08-18T05:43:51.857Z,100568.97
2022-08-18T05:46:40.170Z,100579.94
2022-08-18T05:49:08.740Z,100570.91
2022-08-18T05:51:47.452Z,100571.19
2022-08-18T05:54:37.543Z,100578.31
2022-08-18T05:57:12.422Z,100579.38
2022-08-18T05:59:43.744Z,100583.78
2022-08-18T06:02:31.604Z,100578.84
2022-08-18T06:05:06.714Z,100575.53
2022-08-18T06:07:50.081Z,100579.91
2022-08-18T06:10:19.374Z,100585.16
2022-08-18T06:12:51.464Z,100584.88
2022-08-18T06:15:57.665Z,100578.75
2022-08-18T06:18:54.727Z,100587.22
2022-08-18T06:21:42.281Z,100582.75
2022-08-18T06:24:38.776Z,100582.47
2022-08-18T06:27:43.614Z,100584.59
2022-08-18T06:30:33.488Z,100582.00
2022-08-18T06:33:32.798Z,100576.41
2022-08-18T06:36:27.234Z,100587.66
2022-08-18T06:39:19.650Z,100581.78
2022-08-18T06:41:51.323Z,100580.91
2022-08-18T06:44:46.987Z,100592.69
2022-08-18T06:47:45.668Z,100591.25
2022-08-18T06:50:50.910Z,100588.59
2022-08-18T06:53:27.350Z,100593.72
2022-08-18T06:55:57.338Z,100591.94
2022-08-18T06:58:30.844Z,100579.09
2022-08-18T07:01:07.956Z,100591.13
2022-08-18T07:03:50.062Z,100583.63
2022-08-18T07:06:25.309Z,100581.25
2022-08-18T07:08:57.720Z,100580.59
2022-08-18T07:11:43.340Z,100586.34
2022-08-18T07:14:22.650Z,100578.38
2022-08-18T07:17:10.925Z,100584.16
2022-08-18T07:19:39.072Z,100579.50
2022-08-18T07:22:14.684Z,100580.00
2022-08-18T07:24:49.303Z,100577.75
2022-08-18T07:27:41.898Z,100580.31
2022-08-18T07:30:36.249Z,100580.91
2022-08-18T07:33:22.497Z,100575.72
2022-08-18T07:36:07.285Z,100576.50
2022-08-18T07:38:49.040Z,100576.56
2022-08-18T07:41:17.068Z,100570.06
2022-08-18T07:44:28.786Z,100567.56
2022-08-18T07:47:03.886Z,100561.19
2022-08-18T07:49:46.039Z,100576.25
2022-08-18T07:52:43.873Z,100564.75
2022-08-18T07:55:39.376Z,100563.63
2022-08-18T07:58:49.138Z,100565.44
2022-08-18T08:01:50.100Z,100563.81
2022-08-18T08:04:40.445Z,100559.53
2022-08-18T08:07:24.470Z,100551.97
2022-08-18T08:10:19.094Z,100552.59
2022-08-18T08:13:05.884Z,100545.00
2022-08-18T08:15:52.692Z,100547.28
2022-08-18T08:18:56.280Z,100544.00
2022-08-18T08:21:32.441Z,100549.13
2022-08-18T08:24:10.097Z,100557.53
2022-08-18T08:26:58.089Z,100548.59
2022-08-18T08:30:23.182Z,100543.38
2022-08-18T08:33:13.015Z,100543.44
2022-08-18T08:36:17.559Z,100553.56
2022-08-18T08:38:52.378Z,100550.06
2022-08-18T08:41:41.823Z,100539.78
2022-08-18T08:44:18.316Z,100536.06
2022-08-18T08:47:10.817Z,100529.69
2022-08-18T08:49:43.457Z,100536.06
2022-08-18T08:52:24.151Z,100530.34
2022-08-18T08:55:10.575Z,100534.78
2022-08-18T08:57:51.295Z,100535.88
2022-08-18T09:03:36.860Z,100547.47
2022-08-18T09:06:42.583Z,100551.53
2022-08-18T09:09:27.363Z,100551.69
2022-08-18T09:14:24.819Z,100543.22
2022-08-18T09:17:33.958Z,100542.94
2022-08-18T09:20:49.494Z,100534.88
2022-08-18T09:23:41.062Z,100534.09
2022-08-18T09:26:48.775Z,100517.09
2022-08-18T09:29:25.119Z,100522.50
2022-08-18T09:32:24.033Z,100521.16
2022-08-18T09:35:01.441Z,100520.03
2022-08-18T09:38:14.682Z,100515.63
2022-08-18T09:41:31.659Z,100524.66
2022-08-18T09:44:17.977Z,100522.13
2022-08-18T09:46:57.421Z,100524.00
2022-08-18T09:49:29.382Z,100521.88
2022-08-18T09:55:27.781Z,100528.03
2022-08-18T09:58:48.013Z,100526.25
2022-08-18T10:01:40.358Z,100522.94
2022-08-18T10:04:15.254Z,100523.63
2022-08-18T10:06:48.368Z,100524.88
2022-08-18T10:09:36.340Z,100523.84
2022-08-18T10:12:44.742Z,100526.88
2022-08-18T10:15:44.512Z,100535.56
2022-08-18T10:18:37.607Z,100539.19
2022-08-18T10:21:18.752Z,100539.25
2022-08-18T10:24:34.976Z,100544.31
2022-08-18T10:27:35.094Z,100538.50
2022-08-18T10:30:06.212Z,100539.06
2022-08-18T10:32:44.408Z,100535.28
2022-08-18T10:35:38.921Z,100538.72
2022-08-18T10:38:37.225Z,100534.63
2022-08-18T10:41:23.245Z,100524.03
2022-08-18T10:43:56.030Z,100530.06
2022-08-18T10:46:39.465Z,100534.16
2022-08-18T10:49:13.631Z,100536.03
2022-08-18T10:52:37.932Z,100530.75
2022-08-18T10:55:19.678Z,100521.75
2022-08-18T10:58:27.893Z,100500.53
2022-08-18T11:01:20.993Z,100497.16
2022-08-18T11:04:34.074Z,100471.16
2022-08-18T11:07:10.510Z,100467.16
2022-08-18T11:09:42.141Z,100460.50
2022-08-18T11:12:14.573Z,100458.88
2022-08-18T11:15:22.282Z,100461.94
2022-08-18T11:18:37.551Z,100468.19
2022-08-18T11:21:24.223Z,100461.78
2022-08-18T11:24:27.220Z,100471.97
2022-08-18T11:27:09.607Z,100462.78
2022-08-18T11:29:47.061Z,100461.66
2022-08-18T11:32:35.509Z,100462.97
2022-08-18T11:35:20.861Z,100464.28
2022-08-18T11:37:56.119Z,100472.94
2022-08-18T11:41:10.627Z,100476.31
2022-08-18T11:43:41.121Z,100468.66
2022-08-18T11:46:39.159Z,100462.88
2022-08-18T11:49:23.993Z,100477.09
2022-08-18T11:57:56.000Z,100471.91
2022-08-18T12:01:01.725Z,100463.91
2022-08-18T12:03:52.836Z,100458.78
2022-08-18T12:06:32.959Z,100465.25
2022-08-18T12:09:36.972Z,100476.84
2022-08-18T12:12:35.946Z,100475.28
2022-08-18T12:15:11.799Z,100473.06
2022-08-18T12:20:35.198Z,100474.38
2022-08-18T12:23:03.090Z,100481.88
2022-08-18T12:25:32.036Z,100469.97
2022-08-18T12:28:03.294Z,100470.19
2022-08-18T12:30:42.279Z,100461.56
2022-08-18T12:33:12.468Z,100458.06
2022-08-18T12:35:42.266Z,100464.84
2022-08-18T12:38:14.510Z,100465.06
2022-08-18T12:40:44.517Z,100466.03
2022-08-18T12:43:13.627Z,100468.53
2022-08-18T12:45:42.375Z,100479.88
2022-08-18T12:48:13.504Z,100479.81
2022-08-18T12:50:54.477Z,100473.72
2022-08-18T12:53:29.718Z,100486.53
2022-08-18T12:56:25.683Z,100487.09
2022-08-18T12:58:55.606Z,100489.25
2022-08-18T13:01:25.666Z,100486.63
2022-08-18T13:04:11.029Z,100488.53
2022-08-18T13:06:59.964Z,100480.75
2022-08-18T13:09:48.918Z,100474.22
2022-08-18T13:12:27.448Z,100465.13
2022-08-18T13:14:56.228Z,100465.00
2022-08-18T13:17:30.005Z,100459.59
2022-08-18T13:20:14.021Z,100457.69
2022-08-18T13:22:43.724Z,100461.97
2022-08-18T13:25:28.689Z,100463.25
2022-08-18T13:28:02.821Z,100460.91
2022-08-18T13:30:32.867Z,100471.84
2022-08-18T13:33:05.980Z,100477.34
2022-08-18T13:35:54.472Z,100478.22
2022-08-18T13:38:28.086Z,100478.41
2022-08-18T13:40:59.876Z,100468.81
2022-08-18T13:43:32.352Z,100474.00
2022-08-18T13:46:06.158Z,100466.16
2022-08-18T13:48:35.746Z,100467.31
2022-08-18T13:51:06.155Z,100466.84
2022-08-18T13:53:50.626Z,100465.69
2022-08-18T13:56:31.533Z,100474.00
2022-08-18T13:59:00.339Z,100464.34
2022-08-18T14:01:52.369Z,100465.69
2022-08-18T14:04:20.433Z,100476.97
2022-08-18T14:06:56.877Z,100486.44
2022-08-18T14:09:36.120Z,100491.25
2022-08-18T14:12:23.131Z,100486.00
2022-08-18T14:14:53.921Z,100485.81
2022-08-18T14:17:25.783Z,100492.69
2022-08-18T14:20:15.501Z,100492.28
2022-08-18T14:23:23.463Z,100498.53
2022-08-18T14:26:15.773Z,100502.84
2022-08-18T14:28:47.575Z,100507.16
2022-08-18T14:31:20.528Z,100506.84
2022-08-18T14:33:50.391Z,100503.88
2022-08-18T14:36:29.827Z,100503.06
2022-08-18T14:39:01.570Z,100501.09
2022-08-18T14:41:40.985Z,100495.78
2022-08-18T14:44:31.808Z,100497.66
2022-08-18T14:47:02.246Z,100503.56
2022-08-18T14:49:31.421Z,100505.41
2022-08-18T14:52:01.541Z,100501.31
2022-08-18T14:54:31.899Z,100495.66
2022-08-18T14:57:02.642Z,100508.72
2022-08-18T14:59:34.641Z,100509.72
2022-08-18T15:02:11.211Z,100511.38
2022-08-18T15:04:53.184Z,100516.94
2022-08-18T15:07:26.559Z,100520.44
2022-08-18T15:10:15.560Z,100520.13
2022-08-18T15:12:45.167Z,100522.69
2022-08-18T15:15:18.533Z,100523.28
2022-08-18T15:17:50.035Z,100522.88
2022-08-18T15:20:29.110Z,100521.66
2022-08-18T15:23:24.934Z,100522.03
2022-08-18T15:25:58.998Z,100521.03
2022-08-18T15:28:28.143Z,100525.28
2022-08-18T15:33:51.238Z,100528.97
2022-08-18T15:36:28.719Z,100529.91
2022-08-18T15:38:59.774Z,100525.50
2022-08-18T15:41:49.335Z,100523.84
2022-08-18T15:44:19.605Z,100527.94
2022-08-18T15:46:53.110Z,100526.38
2022-08-18T15:49:23.118Z,100520.41
2022-08-18T15:51:52.565Z,100523.06
2022-08-18T15:54:21.155Z,100519.91
2022-08-18T15:56:57.664Z,100524.81
2022-08-18T15:59:39.770Z,100512.94
2022-08-18T16:02:11.887Z,100520.94
2022-08-18T16:04:47.237Z,100523.84
2022-08-18T16:07:40.014Z,100524.13
2022-08-18T16:10:07.767Z,100524.06
2022-08-18T16:12:36.691Z,100529.78
2022-08-18T16:17:42.399Z,100530.63
2022-08-18T16:20:10.623Z,100528.75
2022-08-18T16:22:40.299Z,100547.31
2022-08-18T16:25:11.757Z,100538.88
2022-08-18T16:27:42.653Z,100536.13
2022-08-18T16:30:18.472Z,100532.91
2022-08-18T16:32:48.824Z,100535.16
2022-08-18T16:35:23.151Z,100530.75
2022-08-18T16:37:52.828Z,100528.03
2022-08-18T16:40:21.345Z,100519.91
2022-08-18T16:42:54.523Z,100519.13
2022-08-18T16:45:22.883Z,100526.59
2022-08-18T16:47:51.356Z,100520.72
2022-08-18T16:50:20.427Z,100526.34
2022-08-18T16:52:49.199Z,100534.16
2022-08-18T16:55:18.295Z,100539.19
2022-08-18T16:58:06.804Z,100535.34
2022-08-18T17:00:55.478Z,100546.50
2022-08-18T17:03:43.961Z,100545.44
2022-08-18T17:06:18.309Z,100538.81
2022-08-18T17:08:47.702Z,100542.63
2022-08-18T17:11:19.292Z,100537.22
2022-08-18T17:13:49.141Z,100534.97
2022-08-18T17:16:20.838Z,100532.34
2022-08-18T17:18:49.208Z,100535.91
2022-08-18T17:21:22.657Z,100537.91
2022-08-18T17:23:52.220Z,100535.22
2022-08-18T17:26:44.886Z,100528.13
2022-08-18T17:29:26.097Z,100540.00
2022-08-18T17:32:05.909Z,100537.78
2022-08-18T17:34:42.753Z,100536.41
2022-08-18T17:37:16.275Z,100530.53
2022-08-18T17:39:54.317Z,100534.19
2022-08-18T17:42:30.730Z,100531.97
2022-08-18T17:45:04.275Z,100523.22
2022-08-18T17:47:53.518Z,100519.53
2022-08-18T17:50:47.751Z,100515.19
2022-08-18T17:53:17.421Z,100516.28
2022-08-18T17:56:00.007Z,100512.00
2022-08-18T17:58:46.733Z,100511.47
2022-08-18T18:01:15.882Z,100513.63
2022-08-18T18:03:45.021Z,100510.00
2022-08-18T18:06:34.506Z,100506.94
2022-08-18T18:09:30.684Z,100511.91
2022-08-18T18:12:22.508Z,100509.91
2022-08-18T18:14:53.223Z,100517.06
2022-08-18T18:17:38.513Z,100512.94
2022-08-18T18:20:39.622Z,100510.16
2022-08-18T18:23:24.131Z,100513.56
2022-08-18T18:25:52.297Z,100515.75
2022-08-18T18:28:33.541Z,100526.78
2022-08-18T18:31:25.440Z,100521.78
2022-08-18T18:34:04.221Z,100528.72
2022-08-18T18:36:41.894Z,100535.06
2022-08-18T18:39:15.347Z,100530.34
2022-08-18T18:41:44.498Z,100535.53
2022-08-18T18:44:15.303Z,100530.66
2022-08-18T18:46:44.537Z,100534.50
2022-08-18T18:49:24.448Z,100516.13
2022-08-18T18:51:53.269Z,100513.16
2022-08-18T18:54:59.893Z,100505.78
2022-08-18T18:58:02.198Z,100508.59
2022-08-18T19:00:53.912Z,100501.50
2022-08-18T19:03:33.344Z,100499.63
2022-08-18T19:06:16.022Z,100503.44
2022-08-18T19:08:47.333Z,100510.25
2022-08-18T19:11:31.524Z,100506.66
2022-08-18T19:14:07.726Z,100504.97
2022-08-18T19:16:57.147Z,100506.88
2022-08-18T19:19:54.843Z,100506.59
2022-08-18T19:23:15.287Z,100508.75
2022-08-18T19:26:09.617Z,100499.94
2022-08-18T19:29:12.716Z,100494.78
2022-08-18T19:31:49.335Z,100498.94
2022-08-18T19:34:51.638Z,100507.22
2022-08-18T19:37:41.739Z,100510.56
2022-08-18T19:40:40.076Z,100513.91
2022-08-18T19:43:43.387Z,100515.03
2022-08-18T19:46:24.197Z,100502.13
2022-08-18T19:49:20.904Z,100495.78
2022-08-18T19:52:00.512Z,100494.19
2022-08-18T19:55:14.512Z,100493.66
2022-08-18T19:58:19.545Z,100499.19
2022-08-18T20:01:26.278Z,100496.66
2022-08-18T20:04:26.179Z,100498.22
2022-08-18T20:07:22.334Z,100491.91
2022-08-18T20:10:21.977Z,100494.84
2022-08-18T20:13:45.566Z,100499.78
2022-08-18T20:16:44.064Z,100500.03
2022-08-18T20:19:40.451Z,100505.78
2022-08-18T20:22:32.511Z,100516.53
2022-08-18T20:25:24.953Z,100513.94
2022-08-18T20:28:20.668Z,100512.13
2022-08-18T20:31:17.793Z,100515.16
2022-08-18T20:34:14.122Z,100513.22
2022-08-18T20:36:44.158Z,100517.06
2022-08-18T20:39:55.208Z,100523.38
2022-08-18T20:42:23.255Z,100525.81
2022-08-18T20:45:00.737Z,100523.38
2022-08-18T20:48:14.301Z,100525.03
2022-08-18T20:51:00.541Z,100531.88
2022-08-18T20:53:50.982Z,100531.63
2022-08-18T20:56:50.934Z,100534.09
2022-08-18T20:59:37.243Z,100535.72
2022-08-18T21:02:28.302Z,100529.66
2022-08-18T21:05:00.484Z,100540.94
2022-08-18T21:07:37.887Z,100526.69
2022-08-18T21:10:23.889Z,100529.38
2022-08-18T21:12:56.009Z,100538.16
2022-08-18T21:15:38.331Z,100540.38
2022-08-18T21:18:19.150Z,100537.91
2022-08-18T21:20:49.434Z,100535.63
2022-08-18T21:23:37.968Z,100526.06
2022-08-18T21:26:16.607Z,100528.03
2022-08-18T21:28:55.264Z,100520.66
2022-08-18T21:31:42.230Z,100526.13
2022-08-18T21:34:36.678Z,100519.47
2022-08-18T21:37:08.858Z,100524.38
2022-08-18T21:39:49.036Z,100520.63
2022-08-18T21:42:29.113Z,100517.03
2022-08-18T21:45:01.019Z,100515.06
2022-08-18T21:47:33.812Z,100506.78
2022-08-18T21:50:32.170Z,100507.41
2022-08-18T21:53:01.914Z,100502.50
2022-08-18T21:55:36.772Z,100498.66
2022-08-18T21:58:33.687Z,100507.19
2022-08-18T22:02:00.969Z,100514.59
2022-08-18T22:04:47.450Z,100513.47
2022-08-18T22:07:34.655Z,100510.13
2022-08-18T22:10:39.295Z,100510.13
2022-08-18T22:13:36.746Z,100504.91
2022-08-18T22:16:38.344Z,100507.31
2022-08-18T22:19:24.124Z,100520.25
2022-08-18T22:22:25.737Z,100514.50
2022-08-18T22:24:59.878Z,100514.03
2022-08-18T22:27:29.761Z,100509.63
2022-08-18T22:30:05.229Z,100508.00
2022-08-18T22:32:37.757Z,100510.16
2022-08-18T22:35:08.215Z,100515.97
2022-08-18T22:37:50.094Z,100514.03
2022-08-18T22:40:21.672Z,100506.91
2022-08-18T22:42:51.182Z,100508.53
2022-08-18T22:45:20.860Z,100506.63
2022-08-18T22:47:49.585Z,100504.97
2022-08-18T22:50:17.915Z,100503.88
2022-08-18T22:52:50.370Z,100503.59
2022-08-18T22:55:22.025Z,100502.50
2022-08-18T22:57:55.763Z,100504.63
2022-08-18T23:00:26.289Z,100498.31
2022-08-18T23:02:56.273Z,100505.50
2022-08-18T23:05:25.484Z,100500.31
2022-08-18T23:07:54.862Z,100492.63
2022-08-18T23:10:23.281Z,100497.56
2022-08-18T23:12:52.249Z,100503.59
2022-08-18T23:15:20.623Z,100511.00
2022-08-18T23:17:50.011Z,100512.41
2022-08-18T23:20:19.199Z,100515.97
2022-08-18T23:22:48.528Z,100510.16
2022-08-18T23:25:16.406Z,100515.16
2022-08-18T23:27:45.160Z,100507.19
2022-08-18T23:30:16.048Z,100508.25
2022-08-18T23:32:45.105Z,100497.53
2022-08-18T23:35:14.143Z,100499.19
2022-08-18T23:37:43.211Z,100505.78
2022-08-18T23:40:15.998Z,100496.19
2022-08-18T23:42:43.764Z,100500.31
2022-08-18T23:45:12.502Z,100499.75
2022-08-18T23:47:41.631Z,100496.72
2022-08-18T23:50:11.361Z,100497.00
2022-08-18T23:52:41.512Z,100505.78
2022-08-18T23:55:14.508Z,100496.41
2022-08-18T23:57:43.243Z,100493.09
